Time;durP1;ratioP1;P1;durP2;ratioP2;P2;SDS_P1;SDS_P2;PMS_P1;PMS_P2;Temp;Humidity;BMP_temperature;BMP_pressure;BME280_temperature;BME280_humidity;BME280_pressure;Samples;Min_cycle;Max_cycle;Signal;HPM_P1;HPM_P2
2022/06/23 00:02:27;;;;;;;4.90;1.85;;;;;;;25.23;36.67;99858.72;20801964;27;97601;-80
2022/06/23 00:12:36;;;;;;;2.30;1.70;;;;;;;25.29;35.57;99859.91;20813621;27;96946;-79
2022/06/23 00:22:40;;;;;;;3.15;1.52;;;;;;;25.22;33.90;99857.91;20799297;27;98597;-80
2022/06/23 00:32:40;;;;;;;2.70;1.25;;;;;;;25.23;33.74;99864.84;20837804;27;98386;-80
2022/06/23 00:42:54;;;;;;;1.40;1.30;;;;;;;25.24;33.43;99882.41;20818386;27;96873;-80
2022/06/23 00:53:27;;;;;;;1.75;1.00;;;;;;;25.19;32.80;99886.53;20818817;27;98756;-80
2022/06/23 01:03:39;;;;;;;1.85;1.05;;;;;;;25.10;33.67;99893.59;20841910;27;97791;-80
2022/06/23 01:13:49;;;;;;;1.83;1.10;;;;;;;25.03;34.07;99889.91;20786990;27;97888;-80
2022/06/23 01:23:54;;;;;;;2.47;1.17;;;;;;;25.02;36.00;99907.59;20744292;27;97655;-79
2022/06/23 01:34:38;;;;;;;4.95;1.33;;;;;;;24.70;39.46;99908.22;20738897;27;96935;-79
2022/06/23 01:44:51;;;;;;;1.33;1.23;;;;;;;24.49;41.37;99905.88;20637189;27;100695;-79
2022/06/23 01:55:01;;;;;;;1.63;1.20;;;;;;;24.35;43.15;99894.84;20719663;27;97655;-79
2022/06/23 02:05:17;;;;;;;2.20;1.40;;;;;;;24.22;42.42;99891.75;20708411;27;99900;-79
2022/06/23 02:15:26;;;;;;;1.83;1.40;;;;;;;24.13;42.95;99898.75;20778264;27;99066;-80
2022/06/23 02:25:32;;;;;;;2.25;1.33;;;;;;;24.01;42.87;99923.75;20857437;27;100963;-80
2022/06/23 02:36:00;;;;;;;3.80;1.30;;;;;;;24.01;41.13;99916.69;20887322;27;96970;-81
2022/06/23 02:46:12;;;;;;;2.20;1.23;;;;;;;23.87;40.56;99931.19;20869259;27;97522;-80
2022/06/23 02:56:41;;;;;;;2.90;1.52;;;;;;;23.85;40.52;99940.25;20845601;27;96938;-80
2022/06/23 03:06:58;;;;;;;1.73;1.30;;;;;;;23.75;40.14;99964.91;20866689;27;97679;-81
2022/06/23 03:17:09;;;;;;;2.72;1.30;;;;;;;23.69;39.77;99962.03;20855208;27;97928;-81
2022/06/23 03:27:28;;;;;;;1.45;1.30;;;;;;;23.63;39.11;99971.34;20836684;27;98232;-80
2022/06/23 03:37:55;;;;;;;1.30;1.20;;;;;;;23.61;38.82;99968.88;20828917;27;97059;-81
2022/06/23 03:48:10;;;;;;;5.40;1.60;;;;;;;23.62;38.64;99981.13;20845989;27;100503;-81
2022/06/23 03:58:19;;;;;;;2.10;1.50;;;;;;;23.64;38.46;100005.59;20833640;27;98391;-81
2022/06/23 04:08:20;;;;;;;1.80;1.42;;;;;;;23.64;38.19;100008.25;20825760;27;100750;-82
2022/06/23 04:18:25;;;;;;;1.77;1.50;;;;;;;23.54;38.72;100014.53;20800258;27;98142;-81
2022/06/23 04:28:36;;;;;;;4.68;1.50;;;;;;;23.58;38.38;100042.31;20817458;27;97736;-81
2022/06/23 04:38:45;;;;;;;2.15;1.50;;;;;;;23.60;38.34;100038.56;20785790;27;98675;-83
2022/06/23 04:49:23;;;;;;;2.35;1.30;;;;;;;23.61;38.47;100057.91;20798676;27;98979;-75
2022/06/23 04:59:42;;;;;;;2.97;1.50;;;;;;;23.77;38.53;100071.34;20775685;27;100738;-78
2022/06/23 05:09:43;;;;;;;5.38;1.70;;;;;;;23.81;38.09;100078.03;20774761;27;97707;-76
2022/06/23 05:19:45;;;;;;;3.00;1.60;;;;;;;23.84;37.78;100082.19;20771297;27;97914;-76
2022/06/23 05:29:55;;;;;;;2.57;1.50;;;;;;;23.88;36.38;100101.25;20800556;27;101340;-75
2022/06/23 05:40:30;;;;;;;4.30;1.73;;;;;;;23.79;35.39;100110.84;20800040;27;100789;-77
2022/06/23 05:50:46;;;;;;;4.85;1.70;;;;;;;24.15;35.61;100113.72;20807762;27;100448;-79
2022/06/23 06:01:04;;;;;;;4.38;1.60;;;;;;;24.24;34.68;100115.50;20819398;27;97731;-80
2022/06/23 06:21:30;;;;;;;3.80;1.40;;;;;;;24.48;34.27;100135.28;20808464;27;101008;-80
2022/06/23 06:31:40;;;;;;;1.95;1.20;;;;;;;24.44;33.78;100141.88;20827024;27;97561;-82
2022/06/23 06:41:46;;;;;;;3.55;3.08;;;;;;;24.59;33.94;100139.56;20810525;27;98590;-80
2022/06/23 06:51:49;;;;;;;3.83;1.90;;;;;;;24.76;34.05;100141.44;20829569;27;98223;-83
2022/06/23 07:02:07;;;;;;;5.20;1.52;;;;;;;24.81;33.40;100148.13;20797473;27;98496;-82
2022/06/23 07:12:15;;;;;;;6.32;1.50;;;;;;;24.92;33.17;100148.72;20826199;27;97537;-86
2022/06/23 07:22:19;;;;;;;3.20;1.77;;;;;;;24.98;32.73;100157.91;20862984;27;99138;-80
2022/06/23 07:32:33;;;;;;;5.32;1.67;;;;;;;25.02;32.72;100166.38;20853933;27;96954;-81
2022/06/23 07:43:06;;;;;;;1.40;1.05;;;;;;;25.07;31.93;100172.91;20871191;27;99363;-81
2022/06/23 07:53:16;;;;;;;4.75;1.00;;;;;;;25.07;30.86;100178.19;20871616;27;101119;-81
2022/06/23 08:03:30;;;;;;;7.93;1.20;;;;;;;25.26;31.93;100173.75;20865214;27;98401;-79
2022/06/23 08:13:31;;;;;;;1.88;0.95;;;;;;;25.47;30.66;100185.91;20822762;27;97614;-81
2022/06/23 08:23:37;;;;;;;2.65;1.30;;;;;;;25.38;29.71;100177.84;20857761;27;97678;-80
2022/06/23 08:33:38;;;;;;;3.78;1.10;;;;;;;25.63;29.06;100175.41;20845147;27;97233;-80
2022/06/23 08:44:07;;;;;;;3.97;1.10;;;;;;;25.68;29.31;100167.00;20834244;27;99212;-81
2022/06/23 08:54:18;;;;;;;1.08;0.98;;;;;;;25.76;29.10;100159.13;20795992;27;100250;-84
2022/06/23 09:04:35;;;;;;;3.50;1.13;;;;;;;25.86;29.51;100157.19;20815992;27;98054;-85
2022/06/23 09:14:47;;;;;;;4.78;1.20;;;;;;;26.02;30.19;100163.59;20816089;27;97986;-83
2022/06/23 09:24:57;;;;;;;3.33;1.20;;;;;;;26.17;28.63;100156.75;20768765;27;98932;-82
2022/06/23 09:35:14;;;;;;;4.10;1.30;;;;;;;26.25;28.41;100153.31;20790259;27;97718;-82
2022/06/23 09:45:52;;;;;;;2.65;1.30;;;;;;;26.49;28.81;100152.59;20790212;27;97006;-83
2022/06/23 09:56:07;;;;;;;1.92;1.35;;;;;;;26.75;28.15;100143.75;20774065;27;99675;-81
2022/06/23 10:06:55;;;;;;;3.70;1.23;;;;;;;26.77;28.37;100144.41;20789717;27;97807;-80
2022/06/23 10:17:08;;;;;;;3.47;0.95;;;;;;;26.81;26.74;100151.06;20777486;27;97858;-83
2022/06/23 10:27:36;;;;;;;14.88;3.47;;;;;;;26.92;29.26;100155.25;20801636;27;98413;-81
2022/06/23 10:37:42;;;;;;;4.07;1.60;;;;;;;26.91;29.28;100145.59;20823908;27;97885;-80
2022/06/23 10:48:00;;;;;;;4.35;1.50;;;;;;;26.84;28.66;100148.09;20809951;27;102157;-79
2022/06/23 10:58:52;;;;;;;3.00;1.30;;;;;;;26.86;27.66;100155.06;20818115;27;97590;-80
2022/06/23 11:08:58;;;;;;;1.88;1.15;;;;;;;27.00;26.80;100138.47;20789788;27;97952;-80
2022/06/23 11:19:17;;;;;;;3.17;1.20;;;;;;;27.16;28.20;100132.38;20831577;27;97089;-79
2022/06/23 11:29:30;;;;;;;1.58;1.30;;;;;;;27.23;28.20;100136.00;20829519;27;97938;-79
2022/06/23 11:39:39;;;;;;;1.90;1.30;;;;;;;27.23;28.13;100130.69;20861302;27;97825;-79
2022/06/23 11:49:54;;;;;;;4.60;2.13;;;;;;;27.38;28.02;100135.34;20856339;27;96935;-81
2022/06/23 12:00:04;;;;;;;4.18;1.40;;;;;;;27.40;27.14;100136.03;20850692;27;99941;-80
2022/06/23 12:10:26;;;;;;;2.28;1.10;;;;;;;27.47;27.24;100139.72;20838262;27;98627;-78
2022/06/23 12:20:33;;;;;;;1.95;1.10;;;;;;;27.58;27.50;100141.22;20847181;27;97500;-80
2022/06/23 12:30:44;;;;;;;2.65;1.20;;;;;;;27.62;27.64;100142.53;20855791;27;101334;-80
2022/06/23 12:41:09;;;;;;;4.53;1.10;;;;;;;27.71;27.41;100149.50;20856157;27;97005;-80
2022/06/23 12:51:35;;;;;;;4.47;1.27;;;;;;;27.65;25.65;100144.88;20875003;27;97794;-82
2022/06/23 13:01:42;;;;;;;3.28;1.02;;;;;;;27.79;27.48;100138.03;20864627;27;101814;-80
2022/06/23 13:12:12;;;;;;;4.68;1.20;;;;;;;27.90;27.42;100131.50;20858593;27;101620;-80
2022/06/23 13:22:14;;;;;;;2.17;1.27;;;;;;;27.92;27.27;100125.03;20848368;27;99921;-81
2022/06/23 13:32:24;;;;;;;4.05;1.30;;;;;;;28.09;26.97;100115.19;20851421;27;97587;-83
2022/06/23 13:42:40;;;;;;;3.38;1.00;;;;;;;28.15;26.89;100108.38;20843530;27;101245;-81
2022/06/23 13:52:51;;;;;;;3.63;1.65;;;;;;;28.21;27.07;100105.00;20848223;27;96838;-80
2022/06/23 14:02:59;;;;;;;;;;;;;;;28.25;26.64;100098.31;20838806;27;98637;-82
2022/06/23 14:13:07;;;;;;;2.45;1.35;;;;;;;28.35;26.31;100092.78;20832138;27;97863;-82
2022/06/23 14:23:12;;;;;;;2.58;1.15;;;;;;;28.41;26.18;100096.59;20827500;27;100994;-80
2022/06/23 14:33:32;;;;;;;1.52;1.13;;;;;;;28.52;25.71;100076.75;20842976;27;97381;-82
2022/06/23 14:44:04;;;;;;;4.30;1.17;;;;;;;28.58;23.83;100073.38;20840138;27;100981;-82
2022/06/23 14:54:11;;;;;;;1.20;0.95;;;;;;;28.70;23.46;100066.66;20840074;27;99110;-82
2022/06/23 15:04:28;;;;;;;2.97;1.10;;;;;;;28.70;23.51;100056.00;20835576;27;101080;-85
2022/06/23 15:14:43;;;;;;;3.08;1.17;;;;;;;28.69;23.55;100056.19;20840570;27;99017;-83
2022/06/23 15:25:01;;;;;;;1.05;0.95;;;;;;;28.69;23.53;100048.19;20843995;27;97851;-83
2022/06/23 15:35:33;;;;;;;4.93;1.38;;;;;;;28.70;24.35;100044.53;20858057;27;97506;-85
2022/06/23 15:45:48;;;;;;;3.33;1.50;;;;;;;28.69;24.10;100032.22;20837350;27;97748;-83
2022/06/23 15:55:51;;;;;;;2.72;0.90;;;;;;;28.59;24.22;100032.41;20845401;27;98088;-82
2022/06/23 16:06:04;;;;;;;2.72;1.10;;;;;;;28.54;24.37;100024.09;20853163;27;97862;-83
2022/06/23 16:16:08;;;;;;;2.30;0.80;;;;;;;28.51;23.80;100024.47;20844750;27;98272;-84
2022/06/23 16:26:30;;;;;;;3.67;1.10;;;;;;;28.51;23.78;100025.28;20845265;27;98041;-84
2022/06/23 16:36:37;;;;;;;2.80;1.00;;;;;;;28.47;24.09;100018.66;20836227;27;98325;-84
2022/06/23 16:47:01;;;;;;;3.28;1.20;;;;;;;28.41;24.61;100025.50;20830890;27;97722;-82
2022/06/23 16:57:10;;;;;;;2.50;1.08;;;;;;;28.39;23.87;100014.22;20849507;27;101110;-82
2022/06/23 17:07:25;;;;;;;3.33;1.00;;;;;;;28.35;23.32;100028.06;20845807;27;98475;-83
2022/06/23 17:17:41;;;;;;;1.15;0.90;;;;;;;28.18;23.25;100024.66;20842053;27;99846;-82
2022/06/23 17:27:50;;;;;;;2.90;1.10;;;;;;;28.14;23.53;100028.66;20846701;27;102452;-83
2022/06/23 17:43:45;;;;;;;2.13;1.60;;;;;;;28.18;22.56;100027.31;20836924;27;97719;-82
2022/06/23 17:49:02;;;;;;;1.40;1.20;;;;;;;28.13;22.28;100035.81;20806955;27;98331;-82
2022/06/23 17:59:03;;;;;;;1.55;1.17;;;;;;;28.05;23.41;100038.50;20831065;27;97293;-77
2022/06/23 18:09:12;;;;;;;;;;;;;;;27.99;23.51;100028.53;20808568;27;97161;-77
2022/06/23 18:19:13;;;;;;;6.07;2.42;;;;;;;27.91;24.35;100037.38;20756166;27;100749;-78
2022/06/23 18:29:39;;;;;;;47.00;31.53;;;;;;;27.74;25.48;100041.94;20739964;27;97387;-79
2022/06/23 18:39:45;;;;;;;9.32;6.07;;;;;;;27.62;25.82;100052.94;20731677;27;98737;-78
2022/06/23 18:49:57;;;;;;;13.60;7.60;;;;;;;27.38;27.26;100061.75;20706616;27;102208;-79
2022/06/23 19:00:01;;;;;;;8.02;3.92;;;;;;;27.15;27.58;100067.75;20735545;27;97195;-79
2022/06/23 19:10:06;;;;;;;17.50;10.23;;;;;;;26.98;27.88;100074.06;20747314;27;100922;-78
2022/06/23 19:20:34;;;;;;;29.00;17.73;;;;;;;27.11;28.38;100085.03;20725345;27;97970;-79
2022/06/23 19:31:00;;;;;;;14.65;8.93;;;;;;;27.17;28.51;100095.00;20746949;27;97204;-79
2022/06/23 19:41:27;;;;;;;16.33;6.70;;;;;;;26.76;29.05;100100.25;20745326;27;98392;-80
2022/06/23 19:51:31;;;;;;;7.55;4.18;;;;;;;26.18;29.74;100101.84;20761323;27;101159;-79
2022/06/23 20:01:46;;;;;;;13.02;4.57;;;;;;;25.95;30.53;100097.06;20765114;27;98198;-79
2022/06/23 20:11:53;;;;;;;11.32;4.07;;;;;;;25.81;30.72;100102.97;20767149;27;100987;-81
2022/06/23 20:22:18;;;;;;;7.78;3.10;;;;;;;25.57;31.36;100101.78;20835865;27;97713;-77
2022/06/23 20:32:32;;;;;;;11.73;5.88;;;;;;;25.31;32.27;100109.69;20832154;27;97993;-78
2022/06/23 20:42:48;;;;;;;10.43;3.65;;;;;;;25.28;32.71;100116.13;20834317;27;98874;-78
2022/06/23 20:53:18;;;;;;;11.75;3.58;;;;;;;25.30;32.75;100132.69;20814249;27;99947;-78
2022/06/23 21:03:49;;;;;;;7.40;2.87;;;;;;;24.73;33.69;100140.91;20812764;27;97572;-79
2022/06/23 21:14:06;;;;;;;7.30;3.20;;;;;;;24.68;34.15;100137.88;20848627;27;100672;-80
2022/06/23 21:24:39;;;;;;;11.70;3.13;;;;;;;24.42;34.52;100155.22;20825781;27;98953;-80
2022/06/23 21:34:52;;;;;;;5.00;2.83;;;;;;;24.27;34.93;100159.34;20784494;27;97744;-80
2022/06/23 21:45:06;;;;;;;5.50;2.90;;;;;;;24.24;34.59;100163.13;20815780;27;97900;-81
2022/06/23 21:55:31;;;;;;;7.90;2.75;;;;;;;24.25;34.57;100163.94;20807374;27;102327;-78
2022/06/23 22:06:16;;;;;;;4.10;2.40;;;;;;;24.36;33.04;100170.88;20793537;27;98857;-80
2022/06/23 22:16:21;;;;;;;9.25;2.90;;;;;;;24.43;31.92;100183.38;20767336;27;100128;-79
2022/06/23 22:26:37;;;;;;;10.63;2.92;;;;;;;24.44;32.12;100185.03;20786750;27;99634;-78
2022/06/23 22:36:39;;;;;;;3.65;2.17;;;;;;;24.16;32.62;100204.47;20791010;27;100813;-79
2022/06/23 22:47:10;;;;;;;4.33;2.40;;;;;;;23.88;33.38;100217.59;20808481;27;97292;-79
2022/06/23 22:57:49;;;;;;;4.13;2.17;;;;;;;23.62;33.94;100219.00;20835783;27;97766;-79
2022/06/23 23:07:56;;;;;;;5.43;2.50;;;;;;;23.37;34.80;100224.81;20800572;27;98826;-81
2022/06/23 23:17:57;;;;;;;6.32;2.40;;;;;;;23.28;35.29;100218.56;20811460;27;97106;-78
2022/06/23 23:28:16;;;;;;;9.00;2.55;;;;;;;23.18;35.85;100235.22;20781165;27;98689;-78
2022/06/23 23:38:42;;;;;;;5.25;2.90;;;;;;;23.02;36.23;100242.78;20804387;27;100445;-79
2022/06/23 23:48:45;;;;;;;6.30;3.10;;;;;;;22.96;37.08;100232.75;20799758;27;100529;-78
2022/06/23 23:58:45;;;;;;;7.63;3.17;;;;;;;22.84;37.62;100235.50;20791149;27;97622;-78
